sensor_id;sensor_type;location;lat;lon;timestamp;P1;durP1;ratioP1;P2;durP2;ratioP2
24557;SDS011;12726;49.148;8.582;2023-08-01T00:01:55;9.57;;;4.43;;
24557;SDS011;12726;49.148;8.582;2023-08-01T00:04:40;6.88;;;3.85;;
24557;SDS011;12726;49.148;8.582;2023-08-01T00:07:26;6.35;;;3.42;;
24557;SDS011;12726;49.148;8.582;2023-08-01T00:10:12;9.48;;;3.75;;
24557;SDS011;12726;49.148;8.582;2023-08-01T00:12:57;6.43;;;3.80;;
24557;SDS011;12726;49.148;8.582;2023-08-01T00:15:44;7.70;;;3.85;;
24557;SDS011;12726;49.148;8.582;2023-08-01T00:18:29;5.35;;;3.47;;
24557;SDS011;12726;49.148;8.582;2023-08-01T00:21:14;6.38;;;3.50;;
24557;SDS011;12726;49.148;8.582;2023-08-01T00:24:00;5.40;;;3.22;;
24557;SDS011;12726;49.148;8.582;2023-08-01T00:26:45;8.05;;;3.90;;
24557;SDS011;12726;49.148;8.582;2023-08-01T00:29:31;5.38;;;3.75;;
24557;SDS011;12726;49.148;8.582;2023-08-01T00:32:18;8.55;;;3.67;;
24557;SDS011;12726;49.148;8.582;2023-08-01T00:35:03;6.28;;;3.55;;
24557;SDS011;12726;49.148;8.582;2023-08-01T00:37:49;7.53;;;3.80;;
24557;SDS011;12726;49.148;8.582;2023-08-01T00:40:35;6.75;;;3.78;;
24557;SDS011;12726;49.148;8.582;2023-08-01T00:43:20;8.57;;;3.65;;
24557;SDS011;12726;49.148;8.582;2023-08-01T00:46:05;6.82;;;3.83;;
24557;SDS011;12726;49.148;8.582;2023-08-01T00:48:54;5.57;;;3.00;;
24557;SDS011;12726;49.148;8.582;2023-08-01T00:51:41;4.88;;;3.17;;
24557;SDS011;12726;49.148;8.582;2023-08-01T00:54:28;7.10;;;3.78;;
24557;SDS011;12726;49.148;8.582;2023-08-01T00:57:19;5.25;;;3.42;;
24557;SDS011;12726;49.148;8.582;2023-08-01T01:00:05;6.45;;;3.25;;
24557;SDS011;12726;49.148;8.582;2023-08-01T01:02:51;6.88;;;3.45;;
24557;SDS011;12726;49.148;8.582;2023-08-01T01:05:38;7.63;;;3.97;;
24557;SDS011;12726;49.148;8.582;2023-08-01T01:08:27;4.60;;;3.28;;
24557;SDS011;12726;49.148;8.582;2023-08-01T01:11:13;7.40;;;3.53;;
24557;SDS011;12726;49.148;8.582;2023-08-01T01:13:58;7.80;;;3.80;;
24557;SDS011;12726;49.148;8.582;2023-08-01T01:16:44;6.88;;;3.45;;
24557;SDS011;12726;49.148;8.582;2023-08-01T01:19:29;7.22;;;3.40;;
24557;SDS011;12726;49.148;8.582;2023-08-01T01:22:16;6.68;;;3.08;;
24557;SDS011;12726;49.148;8.582;2023-08-01T01:25:01;7.13;;;3.95;;
24557;SDS011;12726;49.148;8.582;2023-08-01T01:27:49;5.03;;;2.83;;
24557;SDS011;12726;49.148;8.582;2023-08-01T01:30:36;7.25;;;3.50;;
24557;SDS011;12726;49.148;8.582;2023-08-01T01:33:22;6.25;;;3.05;;
24557;SDS011;12726;49.148;8.582;2023-08-01T01:36:08;7.15;;;3.65;;
24557;SDS011;12726;49.148;8.582;2023-08-01T01:38:54;7.47;;;4.20;;
24557;SDS011;12726;49.148;8.582;2023-08-01T01:41:40;8.00;;;3.72;;
24557;SDS011;12726;49.148;8.582;2023-08-01T01:44:25;6.35;;;3.72;;
24557;SDS011;12726;49.148;8.582;2023-08-01T01:47:11;7.85;;;3.47;;
24557;SDS011;12726;49.148;8.582;2023-08-01T01:49:56;9.35;;;4.40;;
24557;SDS011;12726;49.148;8.582;2023-08-01T01:52:42;7.00;;;3.47;;
24557;SDS011;12726;49.148;8.582;2023-08-01T01:55:29;7.55;;;4.00;;
24557;SDS011;12726;49.148;8.582;2023-08-01T01:58:14;5.80;;;3.85;;
24557;SDS011;12726;49.148;8.582;2023-08-01T02:00:59;7.35;;;3.85;;
24557;SDS011;12726;49.148;8.582;2023-08-01T02:03:44;9.85;;;4.50;;
24557;SDS011;12726;49.148;8.582;2023-08-01T02:06:30;8.00;;;3.50;;
24557;SDS011;12726;49.148;8.582;2023-08-01T02:09:15;7.13;;;3.67;;
24557;SDS011;12726;49.148;8.582;2023-08-01T02:12:01;6.57;;;3.40;;
24557;SDS011;12726;49.148;8.582;2023-08-01T02:14:48;7.53;;;3.80;;
24557;SDS011;12726;49.148;8.582;2023-08-01T02:17:33;10.32;;;4.30;;
24557;SDS011;12726;49.148;8.582;2023-08-01T02:20:19;7.15;;;4.10;;
24557;SDS011;12726;49.148;8.582;2023-08-01T02:23:04;7.95;;;4.00;;
24557;SDS011;12726;49.148;8.582;2023-08-01T02:25:49;7.57;;;4.10;;
24557;SDS011;12726;49.148;8.582;2023-08-01T02:28:36;8.77;;;4.68;;
24557;SDS011;12726;49.148;8.582;2023-08-01T02:31:21;7.88;;;3.75;;
24557;SDS011;12726;49.148;8.582;2023-08-01T02:34:07;9.05;;;3.60;;
24557;SDS011;12726;49.148;8.582;2023-08-01T02:36:52;6.80;;;3.35;;
24557;SDS011;12726;49.148;8.582;2023-08-01T02:39:37;7.97;;;4.03;;
24557;SDS011;12726;49.148;8.582;2023-08-01T02:42:23;9.50;;;4.15;;
24557;SDS011;12726;49.148;8.582;2023-08-01T02:45:09;6.82;;;4.00;;
24557;SDS011;12726;49.148;8.582;2023-08-01T02:47:55;8.48;;;4.47;;
24557;SDS011;12726;49.148;8.582;2023-08-01T02:50:40;10.32;;;3.90;;
24557;SDS011;12726;49.148;8.582;2023-08-01T02:53:25;6.68;;;3.28;;
24557;SDS011;12726;49.148;8.582;2023-08-01T02:56:11;6.25;;;3.75;;
24557;SDS011;12726;49.148;8.582;2023-08-01T02:58:56;7.85;;;3.92;;
24557;SDS011;12726;49.148;8.582;2023-08-01T03:01:43;7.40;;;3.92;;
24557;SDS011;12726;49.148;8.582;2023-08-01T03:04:28;8.60;;;3.53;;
24557;SDS011;12726;49.148;8.582;2023-08-01T03:07:14;6.72;;;3.17;;
24557;SDS011;12726;49.148;8.582;2023-08-01T03:09:59;7.00;;;4.07;;
24557;SDS011;12726;49.148;8.582;2023-08-01T03:12:44;9.00;;;4.25;;
24557;SDS011;12726;49.148;8.582;2023-08-01T03:15:30;8.55;;;4.63;;
24557;SDS011;12726;49.148;8.582;2023-08-01T03:18:16;7.50;;;4.57;;
24557;SDS011;12726;49.148;8.582;2023-08-01T03:21:01;5.60;;;3.75;;
24557;SDS011;12726;49.148;8.582;2023-08-01T03:23:47;8.40;;;4.53;;
24557;SDS011;12726;49.148;8.582;2023-08-01T03:26:32;5.35;;;3.83;;
24557;SDS011;12726;49.148;8.582;2023-08-01T03:29:18;8.30;;;3.97;;
24557;SDS011;12726;49.148;8.582;2023-08-01T03:32:05;6.97;;;3.78;;
24557;SDS011;12726;49.148;8.582;2023-08-01T03:34:52;10.55;;;4.43;;
24557;SDS011;12726;49.148;8.582;2023-08-01T03:37:37;8.10;;;4.10;;
24557;SDS011;12726;49.148;8.582;2023-08-01T03:40:23;6.50;;;3.80;;
24557;SDS011;12726;49.148;8.582;2023-08-01T03:43:08;7.47;;;3.72;;
24557;SDS011;12726;49.148;8.582;2023-08-01T03:45:53;9.45;;;4.13;;
24557;SDS011;12726;49.148;8.582;2023-08-01T03:48:39;9.93;;;4.13;;
24557;SDS011;12726;49.148;8.582;2023-08-01T03:51:26;6.95;;;3.45;;
24557;SDS011;12726;49.148;8.582;2023-08-01T03:54:11;6.83;;;3.87;;
24557;SDS011;12726;49.148;8.582;2023-08-01T03:56:56;8.20;;;3.80;;
24557;SDS011;12726;49.148;8.582;2023-08-01T03:59:42;7.38;;;3.85;;
24557;SDS011;12726;49.148;8.582;2023-08-01T04:02:27;6.82;;;3.83;;
24557;SDS011;12726;49.148;8.582;2023-08-01T04:05:12;7.75;;;4.28;;
24557;SDS011;12726;49.148;8.582;2023-08-01T04:07:59;6.78;;;4.20;;
24557;SDS011;12726;49.148;8.582;2023-08-01T04:10:45;11.00;;;4.70;;
24557;SDS011;12726;49.148;8.582;2023-08-01T04:13:30;7.07;;;3.67;;
24557;SDS011;12726;49.148;8.582;2023-08-01T04:16:15;12.05;;;4.35;;
24557;SDS011;12726;49.148;8.582;2023-08-01T04:19:01;12.05;;;3.92;;
24557;SDS011;12726;49.148;8.582;2023-08-01T04:21:46;6.28;;;3.63;;
24557;SDS011;12726;49.148;8.582;2023-08-01T04:24:32;5.93;;;3.92;;
24557;SDS011;12726;49.148;8.582;2023-08-01T04:27:18;6.30;;;3.85;;
24557;SDS011;12726;49.148;8.582;2023-08-01T04:30:03;9.43;;;3.97;;
24557;SDS011;12726;49.148;8.582;2023-08-01T04:32:49;6.60;;;4.18;;
24557;SDS011;12726;49.148;8.582;2023-08-01T04:35:35;9.38;;;4.10;;
24557;SDS011;12726;49.148;8.582;2023-08-01T04:38:20;10.43;;;4.35;;
24557;SDS011;12726;49.148;8.582;2023-08-01T04:41:07;9.57;;;3.85;;
24557;SDS011;12726;49.148;8.582;2023-08-01T04:43:52;7.68;;;4.45;;
24557;SDS011;12726;49.148;8.582;2023-08-01T04:46:37;11.43;;;4.30;;
24557;SDS011;12726;49.148;8.582;2023-08-01T04:49:23;9.45;;;4.75;;
24557;SDS011;12726;49.148;8.582;2023-08-01T04:52:08;7.32;;;4.05;;
24557;SDS011;12726;49.148;8.582;2023-08-01T04:54:54;9.50;;;4.28;;
24557;SDS011;12726;49.148;8.582;2023-08-01T04:57:41;11.13;;;4.15;;
24557;SDS011;12726;49.148;8.582;2023-08-01T05:00:26;11.10;;;4.60;;
24557;SDS011;12726;49.148;8.582;2023-08-01T05:03:11;6.65;;;4.13;;
24557;SDS011;12726;49.148;8.582;2023-08-01T05:05:57;9.77;;;4.30;;
24557;SDS011;12726;49.148;8.582;2023-08-01T05:08:42;13.82;;;4.75;;
24557;SDS011;12726;49.148;8.582;2023-08-01T05:11:27;11.32;;;4.57;;
24557;SDS011;12726;49.148;8.582;2023-08-01T05:14:14;10.77;;;4.30;;
24557;SDS011;12726;49.148;8.582;2023-08-01T05:16:59;9.40;;;4.15;;
24557;SDS011;12726;49.148;8.582;2023-08-01T05:19:45;10.77;;;4.35;;
24557;SDS011;12726;49.148;8.582;2023-08-01T05:22:30;9.82;;;4.03;;
24557;SDS011;12726;49.148;8.582;2023-08-01T05:25:16;8.93;;;4.53;;
24557;SDS011;12726;49.148;8.582;2023-08-01T05:28:01;8.65;;;4.40;;
24557;SDS011;12726;49.148;8.582;2023-08-01T05:30:48;10.05;;;4.20;;
24557;SDS011;12726;49.148;8.582;2023-08-01T05:33:34;7.78;;;4.28;;
24557;SDS011;12726;49.148;8.582;2023-08-01T05:36:19;7.70;;;4.32;;
24557;SDS011;12726;49.148;8.582;2023-08-01T05:39:04;10.10;;;4.07;;
24557;SDS011;12726;49.148;8.582;2023-08-01T05:41:50;7.82;;;4.00;;
24557;SDS011;12726;49.148;8.582;2023-08-01T05:44:35;6.95;;;4.10;;
24557;SDS011;12726;49.148;8.582;2023-08-01T05:47:22;9.45;;;3.95;;
24557;SDS011;12726;49.148;8.582;2023-08-01T05:50:08;9.82;;;4.32;;
24557;SDS011;12726;49.148;8.582;2023-08-01T05:52:54;9.40;;;4.30;;
24557;SDS011;12726;49.148;8.582;2023-08-01T05:55:39;8.02;;;4.20;;
24557;SDS011;12726;49.148;8.582;2023-08-01T05:58:25;6.85;;;3.83;;
24557;SDS011;12726;49.148;8.582;2023-08-01T06:01:10;8.57;;;3.80;;
24557;SDS011;12726;49.148;8.582;2023-08-01T06:03:58;9.57;;;4.28;;
24557;SDS011;12726;49.148;8.582;2023-08-01T06:06:43;9.77;;;3.88;;
24557;SDS011;12726;49.148;8.582;2023-08-01T06:09:28;8.60;;;4.15;;
24557;SDS011;12726;49.148;8.582;2023-08-01T06:12:14;7.22;;;3.50;;
24557;SDS011;12726;49.148;8.582;2023-08-01T06:14:59;8.45;;;4.13;;
24557;SDS011;12726;49.148;8.582;2023-08-01T06:17:45;8.90;;;4.20;;
24557;SDS011;12726;49.148;8.582;2023-08-01T06:20:32;7.80;;;4.25;;
24557;SDS011;12726;49.148;8.582;2023-08-01T06:23:17;9.32;;;4.45;;
24557;SDS011;12726;49.148;8.582;2023-08-01T06:26:02;10.07;;;4.55;;
24557;SDS011;12726;49.148;8.582;2023-08-01T06:28:47;6.65;;;4.05;;
24557;SDS011;12726;49.148;8.582;2023-08-01T06:31:32;7.65;;;4.30;;
24557;SDS011;12726;49.148;8.582;2023-08-01T06:34:18;9.00;;;4.75;;
24557;SDS011;12726;49.148;8.582;2023-08-01T06:37:05;7.78;;;4.00;;
24557;SDS011;12726;49.148;8.582;2023-08-01T06:39:50;8.60;;;3.95;;
24557;SDS011;12726;49.148;8.582;2023-08-01T06:42:35;8.50;;;3.92;;
24557;SDS011;12726;49.148;8.582;2023-08-01T06:45:20;10.45;;;4.68;;
24557;SDS011;12726;49.148;8.582;2023-08-01T06:48:06;9.45;;;4.40;;
24557;SDS011;12726;49.148;8.582;2023-08-01T06:50:51;8.93;;;4.43;;
24557;SDS011;12726;49.148;8.582;2023-08-01T06:53:38;9.30;;;4.82;;
24557;SDS011;12726;49.148;8.582;2023-08-01T06:56:23;9.52;;;4.85;;
24557;SDS011;12726;49.148;8.582;2023-08-01T06:59:09;10.77;;;4.50;;
24557;SDS011;12726;49.148;8.582;2023-08-01T07:01:55;6.68;;;5.32;;
24557;SDS011;12726;49.148;8.582;2023-08-01T07:04:40;7.95;;;4.80;;
24557;SDS011;12726;49.148;8.582;2023-08-01T07:07:26;8.82;;;4.53;;
24557;SDS011;12726;49.148;8.582;2023-08-01T07:10:12;9.15;;;5.15;;
24557;SDS011;12726;49.148;8.582;2023-08-01T07:13:00;6.60;;;4.20;;
24557;SDS011;12726;49.148;8.582;2023-08-01T07:15:47;6.97;;;4.18;;
24557;SDS011;12726;49.148;8.582;2023-08-01T07:18:32;7.95;;;4.43;;
24557;SDS011;12726;49.148;8.582;2023-08-01T07:21:18;8.20;;;4.57;;
24557;SDS011;12726;49.148;8.582;2023-08-01T07:24:03;10.35;;;4.65;;
24557;SDS011;12726;49.148;8.582;2023-08-01T07:26:51;11.38;;;4.15;;
24557;SDS011;12726;49.148;8.582;2023-08-01T07:29:36;8.40;;;3.92;;
24557;SDS011;12726;49.148;8.582;2023-08-01T07:32:21;7.70;;;4.30;;
24557;SDS011;12726;49.148;8.582;2023-08-01T07:35:07;7.40;;;4.22;;
24557;SDS011;12726;49.148;8.582;2023-08-01T07:37:53;8.20;;;4.55;;
24557;SDS011;12726;49.148;8.582;2023-08-01T07:40:38;9.38;;;4.13;;
24557;SDS011;12726;49.148;8.582;2023-08-01T07:43:25;6.80;;;4.25;;
24557;SDS011;12726;49.148;8.582;2023-08-01T07:46:10;5.93;;;3.97;;
24557;SDS011;12726;49.148;8.582;2023-08-01T07:48:56;7.43;;;3.85;;
24557;SDS011;12726;49.148;8.582;2023-08-01T07:51:41;5.15;;;3.45;;
24557;SDS011;12726;49.148;8.582;2023-08-01T07:54:26;7.75;;;3.80;;
24557;SDS011;12726;49.148;8.582;2023-08-01T07:57:12;6.53;;;4.00;;
24557;SDS011;12726;49.148;8.582;2023-08-01T07:59:58;6.28;;;4.10;;
24557;SDS011;12726;49.148;8.582;2023-08-01T08:02:44;6.55;;;3.88;;
24557;SDS011;12726;49.148;8.582;2023-08-01T08:05:30;8.68;;;3.97;;
24557;SDS011;12726;49.148;8.582;2023-08-01T08:08:16;8.30;;;3.50;;
24557;SDS011;12726;49.148;8.582;2023-08-01T08:11:01;7.50;;;3.08;;
24557;SDS011;12726;49.148;8.582;2023-08-01T08:13:47;6.30;;;3.17;;
24557;SDS011;12726;49.148;8.582;2023-08-01T08:16:33;9.25;;;3.65;;
24557;SDS011;12726;49.148;8.582;2023-08-01T08:19:19;5.63;;;2.80;;
24557;SDS011;12726;49.148;8.582;2023-08-01T08:22:04;3.97;;;2.53;;
24557;SDS011;12726;49.148;8.582;2023-08-01T08:24:49;3.95;;;2.00;;
24557;SDS011;12726;49.148;8.582;2023-08-01T08:27:35;3.55;;;2.63;;
24557;SDS011;12726;49.148;8.582;2023-08-01T08:30:20;4.38;;;2.38;;
24557;SDS011;12726;49.148;8.582;2023-08-01T08:33:06;3.53;;;2.17;;
24557;SDS011;12726;49.148;8.582;2023-08-01T08:35:52;2.45;;;1.92;;
24557;SDS011;12726;49.148;8.582;2023-08-01T08:38:37;3.80;;;1.90;;
24557;SDS011;12726;49.148;8.582;2023-08-01T08:41:25;2.75;;;1.80;;
24557;SDS011;12726;49.148;8.582;2023-08-01T08:44:13;3.90;;;2.30;;
24557;SDS011;12726;49.148;8.582;2023-08-01T08:47:01;4.70;;;1.80;;
24557;SDS011;12726;49.148;8.582;2023-08-01T08:49:50;3.03;;;1.80;;
24557;SDS011;12726;49.148;8.582;2023-08-01T08:52:36;3.92;;;1.73;;
24557;SDS011;12726;49.148;8.582;2023-08-01T08:55:22;2.58;;;1.50;;
24557;SDS011;12726;49.148;8.582;2023-08-01T08:58:10;3.10;;;1.67;;
24557;SDS011;12726;49.148;8.582;2023-08-01T09:00:56;5.50;;;1.75;;
24557;SDS011;12726;49.148;8.582;2023-08-01T09:03:42;2.03;;;1.15;;
24557;SDS011;12726;49.148;8.582;2023-08-01T09:06:30;2.20;;;1.67;;
24557;SDS011;12726;49.148;8.582;2023-08-01T09:09:16;1.80;;;1.23;;
24557;SDS011;12726;49.148;8.582;2023-08-01T09:12:02;2.58;;;1.38;;
24557;SDS011;12726;49.148;8.582;2023-08-01T09:14:48;2.17;;;1.50;;
24557;SDS011;12726;49.148;8.582;2023-08-01T09:17:35;1.55;;;1.15;;
24557;SDS011;12726;49.148;8.582;2023-08-01T09:20:21;2.72;;;1.38;;
24557;SDS011;12726;49.148;8.582;2023-08-01T09:23:09;1.67;;;1.13;;
24557;SDS011;12726;49.148;8.582;2023-08-01T09:25:55;2.28;;;1.20;;
24557;SDS011;12726;49.148;8.582;2023-08-01T09:28:40;1.88;;;1.00;;
24557;SDS011;12726;49.148;8.582;2023-08-01T09:31:26;1.60;;;0.88;;
24557;SDS011;12726;49.148;8.582;2023-08-01T09:34:18;1.10;;;0.85;;
24557;SDS011;12726;49.148;8.582;2023-08-01T09:37:04;3.23;;;0.90;;
24557;SDS011;12726;49.148;8.582;2023-08-01T09:39:54;0.90;;;0.75;;
24557;SDS011;12726;49.148;8.582;2023-08-01T09:42:40;1.08;;;0.60;;
24557;SDS011;12726;49.148;8.582;2023-08-01T09:45:26;0.73;;;0.60;;
24557;SDS011;12726;49.148;8.582;2023-08-01T09:48:11;1.40;;;0.68;;
24557;SDS011;12726;49.148;8.582;2023-08-01T09:51:07;1.00;;;0.70;;
24557;SDS011;12726;49.148;8.582;2023-08-01T09:53:55;0.93;;;0.80;;
24557;SDS011;12726;49.148;8.582;2023-08-01T09:56:42;1.40;;;0.88;;
24557;SDS011;12726;49.148;8.582;2023-08-01T09:59:29;0.73;;;0.70;;
24557;SDS011;12726;49.148;8.582;2023-08-01T10:02:15;1.70;;;0.80;;
24557;SDS011;12726;49.148;8.582;2023-08-01T10:05:04;1.92;;;0.68;;
24557;SDS011;12726;49.148;8.582;2023-08-01T10:07:52;3.45;;;0.80;;
24557;SDS011;12726;49.148;8.582;2023-08-01T10:10:41;1.00;;;0.60;;
24557;SDS011;12726;49.148;8.582;2023-08-01T10:13:28;0.93;;;0.70;;
24557;SDS011;12726;49.148;8.582;2023-08-01T10:16:14;2.17;;;0.73;;
24557;SDS011;12726;49.148;8.582;2023-08-01T10:19:00;1.80;;;0.60;;
24557;SDS011;12726;49.148;8.582;2023-08-01T10:21:47;2.50;;;0.60;;
24557;SDS011;12726;49.148;8.582;2023-08-01T10:24:34;0.82;;;0.60;;
24557;SDS011;12726;49.148;8.582;2023-08-01T10:27:21;0.98;;;0.85;;
24557;SDS011;12726;49.148;8.582;2023-08-01T10:30:08;2.38;;;0.70;;
24557;SDS011;12726;49.148;8.582;2023-08-01T10:32:54;0.68;;;0.68;;
24557;SDS011;12726;49.148;8.582;2023-08-01T10:35:41;0.90;;;0.70;;
24557;SDS011;12726;49.148;8.582;2023-08-01T10:38:30;0.80;;;0.63;;
24557;SDS011;12726;49.148;8.582;2023-08-01T10:41:19;1.63;;;0.63;;
24557;SDS011;12726;49.148;8.582;2023-08-01T10:44:08;0.90;;;0.70;;
24557;SDS011;12726;49.148;8.582;2023-08-01T10:46:58;0.95;;;0.70;;
24557;SDS011;12726;49.148;8.582;2023-08-01T10:49:45;1.45;;;0.70;;
24557;SDS011;12726;49.148;8.582;2023-08-01T10:52:30;0.90;;;0.77;;
24557;SDS011;12726;49.148;8.582;2023-08-01T10:55:17;1.35;;;0.80;;
24557;SDS011;12726;49.148;8.582;2023-08-01T10:58:02;9.02;;;1.15;;
24557;SDS011;12726;49.148;8.582;2023-08-01T11:00:56;1.92;;;0.80;;
24557;SDS011;12726;49.148;8.582;2023-08-01T11:03:43;0.85;;;0.80;;
24557;SDS011;12726;49.148;8.582;2023-08-01T11:06:29;1.00;;;0.90;;
24557;SDS011;12726;49.148;8.582;2023-08-01T11:09:15;0.93;;;0.60;;
24557;SDS011;12726;49.148;8.582;2023-08-01T11:12:02;0.90;;;0.50;;
24557;SDS011;12726;49.148;8.582;2023-08-01T11:14:47;1.05;;;0.60;;
24557;SDS011;12726;49.148;8.582;2023-08-01T11:17:33;1.20;;;0.70;;
24557;SDS011;12726;49.148;8.582;2023-08-01T11:20:23;2.47;;;0.80;;
24557;SDS011;12726;49.148;8.582;2023-08-01T11:23:09;2.53;;;1.00;;
24557;SDS011;12726;49.148;8.582;2023-08-01T11:25:55;0.90;;;0.70;;
24557;SDS011;12726;49.148;8.582;2023-08-01T11:28:40;1.45;;;0.80;;
24557;SDS011;12726;49.148;8.582;2023-08-01T11:31:26;2.85;;;1.10;;
24557;SDS011;12726;49.148;8.582;2023-08-01T11:34:11;2.85;;;0.88;;
24557;SDS011;12726;49.148;8.582;2023-08-01T11:36:58;1.42;;;0.80;;
24557;SDS011;12726;49.148;8.582;2023-08-01T11:39:45;1.67;;;1.20;;
24557;SDS011;12726;49.148;8.582;2023-08-01T11:42:31;3.03;;;0.98;;
24557;SDS011;12726;49.148;8.582;2023-08-01T11:45:17;1.02;;;0.80;;
24557;SDS011;12726;49.148;8.582;2023-08-01T11:48:03;5.75;;;0.90;;
24557;SDS011;12726;49.148;8.582;2023-08-01T11:50:48;2.30;;;0.95;;
24557;SDS011;12726;49.148;8.582;2023-08-01T11:53:35;1.45;;;0.85;;
24557;SDS011;12726;49.148;8.582;2023-08-01T11:56:23;1.75;;;0.82;;
24557;SDS011;12726;49.148;8.582;2023-08-01T11:59:08;1.90;;;0.90;;
24557;SDS011;12726;49.148;8.582;2023-08-01T12:01:54;2.33;;;1.02;;
24557;SDS011;12726;49.148;8.582;2023-08-01T12:04:39;1.70;;;0.70;;
24557;SDS011;12726;49.148;8.582;2023-08-01T12:07:25;1.95;;;1.10;;
24557;SDS011;12726;49.148;8.582;2023-08-01T12:10:14;1.55;;;1.00;;
24557;SDS011;12726;49.148;8.582;2023-08-01T12:13:00;2.35;;;0.90;;
24557;SDS011;12726;49.148;8.582;2023-08-01T12:15:45;2.75;;;1.00;;
24557;SDS011;12726;49.148;8.582;2023-08-01T12:18:31;1.40;;;0.90;;
24557;SDS011;12726;49.148;8.582;2023-08-01T12:21:16;4.15;;;1.30;;
24557;SDS011;12726;49.148;8.582;2023-08-01T12:24:02;1.42;;;1.02;;
24557;SDS011;12726;49.148;8.582;2023-08-01T12:26:49;2.85;;;1.25;;
24557;SDS011;12726;49.148;8.582;2023-08-01T12:29:35;1.67;;;0.80;;
24557;SDS011;12726;49.148;8.582;2023-08-01T12:32:20;1.50;;;1.05;;
24557;SDS011;12726;49.148;8.582;2023-08-01T12:35:06;2.75;;;1.38;;
24557;SDS011;12726;49.148;8.582;2023-08-01T12:37:52;3.38;;;1.00;;
24557;SDS011;12726;49.148;8.582;2023-08-01T12:40:40;1.60;;;0.70;;
24557;SDS011;12726;49.148;8.582;2023-08-01T12:43:29;0.95;;;0.80;;
24557;SDS011;12726;49.148;8.582;2023-08-01T12:46:14;1.85;;;0.80;;
24557;SDS011;12726;49.148;8.582;2023-08-01T12:49:00;1.17;;;0.80;;
24557;SDS011;12726;49.148;8.582;2023-08-01T12:51:46;1.17;;;0.68;;
24557;SDS011;12726;49.148;8.582;2023-08-01T12:54:31;2.75;;;1.00;;
24557;SDS011;12726;49.148;8.582;2023-08-01T12:57:17;3.25;;;1.30;;
24557;SDS011;12726;49.148;8.582;2023-08-01T13:00:04;1.00;;;0.70;;
24557;SDS011;12726;49.148;8.582;2023-08-01T13:02:53;1.25;;;0.73;;
24557;SDS011;12726;49.148;8.582;2023-08-01T13:05:40;2.35;;;1.08;;
24557;SDS011;12726;49.148;8.582;2023-08-01T13:08:26;1.98;;;1.00;;
24557;SDS011;12726;49.148;8.582;2023-08-01T13:11:12;2.47;;;0.90;;
24557;SDS011;12726;49.148;8.582;2023-08-01T13:13:59;4.00;;;1.00;;
24557;SDS011;12726;49.148;8.582;2023-08-01T13:16:45;1.77;;;0.90;;
24557;SDS011;12726;49.148;8.582;2023-08-01T13:19:31;1.88;;;1.08;;
24557;SDS011;12726;49.148;8.582;2023-08-01T13:22:16;2.13;;;0.90;;
24557;SDS011;12726;49.148;8.582;2023-08-01T13:25:02;3.55;;;0.90;;
24557;SDS011;12726;49.148;8.582;2023-08-01T13:27:48;2.22;;;0.90;;
24557;SDS011;12726;49.148;8.582;2023-08-01T13:30:34;3.10;;;1.33;;
24557;SDS011;12726;49.148;8.582;2023-08-01T13:33:20;2.05;;;0.80;;
24557;SDS011;12726;49.148;8.582;2023-08-01T13:36:06;2.40;;;0.82;;
24557;SDS011;12726;49.148;8.582;2023-08-01T13:38:51;3.60;;;0.85;;
24557;SDS011;12726;49.148;8.582;2023-08-01T13:41:36;1.92;;;0.82;;
24557;SDS011;12726;49.148;8.582;2023-08-01T13:44:22;1.45;;;0.73;;
24557;SDS011;12726;49.148;8.582;2023-08-01T13:47:07;0.93;;;0.80;;
24557;SDS011;12726;49.148;8.582;2023-08-01T13:49:54;2.17;;;0.90;;
24557;SDS011;12726;49.148;8.582;2023-08-01T13:52:39;2.05;;;0.90;;
24557;SDS011;12726;49.148;8.582;2023-08-01T13:55:24;4.32;;;1.38;;
24557;SDS011;12726;49.148;8.582;2023-08-01T13:58:10;2.15;;;1.17;;
24557;SDS011;12726;49.148;8.582;2023-08-01T14:00:55;1.17;;;0.90;;
24557;SDS011;12726;49.148;8.582;2023-08-01T14:03:47;3.15;;;1.10;;
24557;SDS011;12726;49.148;8.582;2023-08-01T14:06:33;3.30;;;0.80;;
24557;SDS011;12726;49.148;8.582;2023-08-01T14:09:19;5.55;;;1.20;;
24557;SDS011;12726;49.148;8.582;2023-08-01T14:12:05;3.25;;;0.80;;
24557;SDS011;12726;49.148;8.582;2023-08-01T14:14:51;2.08;;;0.90;;
24557;SDS011;12726;49.148;8.582;2023-08-01T14:17:38;8.45;;;1.50;;
24557;SDS011;12726;49.148;8.582;2023-08-01T14:20:23;3.30;;;0.90;;
24557;SDS011;12726;49.148;8.582;2023-08-01T14:23:10;2.45;;;0.90;;
24557;SDS011;12726;49.148;8.582;2023-08-01T14:25:57;2.03;;;1.08;;
24557;SDS011;12726;49.148;8.582;2023-08-01T14:28:42;3.47;;;0.98;;
24557;SDS011;12726;49.148;8.582;2023-08-01T14:31:27;1.75;;;0.75;;
24557;SDS011;12726;49.148;8.582;2023-08-01T14:34:13;3.67;;;1.33;;
24557;SDS011;12726;49.148;8.582;2023-08-01T14:36:58;4.75;;;1.05;;
24557;SDS011;12726;49.148;8.582;2023-08-01T14:39:45;3.65;;;1.02;;
24557;SDS011;12726;49.148;8.582;2023-08-01T14:42:31;2.80;;;0.95;;
24557;SDS011;12726;49.148;8.582;2023-08-01T14:45:16;1.85;;;0.80;;
24557;SDS011;12726;49.148;8.582;2023-08-01T14:48:02;4.05;;;1.00;;
24557;SDS011;12726;49.148;8.582;2023-08-01T14:50:47;3.28;;;1.17;;
24557;SDS011;12726;49.148;8.582;2023-08-01T14:53:33;1.73;;;1.08;;
24557;SDS011;12726;49.148;8.582;2023-08-01T14:56:19;2.60;;;1.00;;
24557;SDS011;12726;49.148;8.582;2023-08-01T14:59:04;2.50;;;1.10;;
24557;SDS011;12726;49.148;8.582;2023-08-01T15:01:50;2.13;;;1.02;;
24557;SDS011;12726;49.148;8.582;2023-08-01T15:04:35;3.05;;;1.10;;
24557;SDS011;12726;49.148;8.582;2023-08-01T15:07:20;1.52;;;0.80;;
24557;SDS011;12726;49.148;8.582;2023-08-01T15:10:06;1.70;;;0.77;;
24557;SDS011;12726;49.148;8.582;2023-08-01T15:12:53;2.15;;;0.90;;
24557;SDS011;12726;49.148;8.582;2023-08-01T15:15:39;1.17;;;0.73;;
24557;SDS011;12726;49.148;8.582;2023-08-01T15:18:26;2.72;;;1.00;;
24557;SDS011;12726;49.148;8.582;2023-08-01T15:21:11;2.08;;;0.85;;
24557;SDS011;12726;49.148;8.582;2023-08-01T15:23:56;3.45;;;0.77;;
24557;SDS011;12726;49.148;8.582;2023-08-01T15:26:42;1.58;;;0.90;;
24557;SDS011;12726;49.148;8.582;2023-08-01T15:29:29;4.03;;;1.02;;
24557;SDS011;12726;49.148;8.582;2023-08-01T15:32:14;2.28;;;1.05;;
24557;SDS011;12726;49.148;8.582;2023-08-01T15:34:59;1.45;;;0.80;;
24557;SDS011;12726;49.148;8.582;2023-08-01T15:37:45;3.10;;;1.00;;
24557;SDS011;12726;49.148;8.582;2023-08-01T15:40:30;6.43;;;1.48;;
24557;SDS011;12726;49.148;8.582;2023-08-01T15:43:15;2.92;;;1.10;;
24557;SDS011;12726;49.148;8.582;2023-08-01T15:46:02;2.88;;;1.30;;
24557;SDS011;12726;49.148;8.582;2023-08-01T15:48:48;2.15;;;1.00;;
24557;SDS011;12726;49.148;8.582;2023-08-01T15:51:34;1.92;;;1.10;;
24557;SDS011;12726;49.148;8.582;2023-08-01T15:54:19;1.77;;;1.10;;
24557;SDS011;12726;49.148;8.582;2023-08-01T15:57:04;4.95;;;1.15;;
24557;SDS011;12726;49.148;8.582;2023-08-01T15:59:50;3.50;;;1.25;;
24557;SDS011;12726;49.148;8.582;2023-08-01T16:02:37;3.25;;;0.90;;
24557;SDS011;12726;49.148;8.582;2023-08-01T16:05:22;1.77;;;1.10;;
24557;SDS011;12726;49.148;8.582;2023-08-01T16:08:07;2.55;;;1.25;;
24557;SDS011;12726;49.148;8.582;2023-08-01T16:10:53;1.70;;;0.82;;
24557;SDS011;12726;49.148;8.582;2023-08-01T16:13:38;3.05;;;1.02;;
24557;SDS011;12726;49.148;8.582;2023-08-01T16:16:24;3.60;;;1.25;;
24557;SDS011;12726;49.148;8.582;2023-08-01T16:19:10;1.65;;;0.95;;
24557;SDS011;12726;49.148;8.582;2023-08-01T16:21:55;2.53;;;1.00;;
24557;SDS011;12726;49.148;8.582;2023-08-01T16:24:41;3.38;;;1.00;;
24557;SDS011;12726;49.148;8.582;2023-08-01T16:27:26;2.53;;;0.90;;
24557;SDS011;12726;49.148;8.582;2023-08-01T16:30:12;2.78;;;1.02;;
24557;SDS011;12726;49.148;8.582;2023-08-01T16:32:57;1.95;;;1.10;;
24557;SDS011;12726;49.148;8.582;2023-08-01T16:35:44;2.20;;;0.93;;
24557;SDS011;12726;49.148;8.582;2023-08-01T16:38:29;1.65;;;0.90;;
24557;SDS011;12726;49.148;8.582;2023-08-01T16:41:15;5.95;;;1.20;;